Arequipa, Peru
Current Conditions -  °F | °C
As of 12:00 PM on Monday 22 Dec 2014 (Local Time) from SPQU Reporting Station
Clear Clear  
Wind Chill: 66°   Ceiling: Unl
Heat Index: 66°   Visibility: 6mi
Dew Point: 34°   Wind: 13mph
Humidity: 30%   Direction: 250°WSW
Pressure: 30.27"   Gusts: NA
Location:  16.39°S, 71.53°W
Report Text: SPQU 221700Z 25011KT 220V290 CAVOK 19/01 Q1025 NOSIGRMK PP000
Loading
Personal Weather Stations






























Interactive Weather Map New forecast layout! Learn more

10-Day Weather Forecast

Advertisements
Track Severe Weather on mobile